Terminal Aerodrome Forecast
Issued by NWS Louisville, KY

Home | Current Version | Previous Version | Text Only | Print | Product List | Glossary On
Versions: 1 2 3 4 5 6 7 8 9 10 11 12 13 14 15 16 17 18 19 20
000
FTUS43 KLMK 260500
TAFSDF
TAF
KSDF 260520Z 2606/2712 17005KT P6SM BKN110
     FM261400 23011G15KT P6SM SCT040 BKN250
     FM270400 24012G17KT P6SM VCTS BKN035CB OVC130
     FM270800 22008KT P6SM BKN040 OVC090=

USA.gov is the U.S. government's official web portal to all federal, state and local government web resources and services.